createdAt,value
2022-09-26T00:01:38.463Z,100733.51
2022-09-26T00:04:16.157Z,100731.42
2022-09-26T00:06:44.231Z,100732.13
2022-09-26T00:09:13.626Z,100727.08
2022-09-26T00:11:42.340Z,100725.86
2022-09-26T00:14:17.709Z,100725.34
2022-09-26T00:16:45.912Z,100724.11
2022-09-26T00:19:14.358Z,100722.02
2022-09-26T00:21:42.790Z,100720.27
2022-09-26T00:24:10.758Z,100719.92
2022-09-26T00:26:39.239Z,100718.88
2022-09-26T00:29:11.473Z,100714.52
2022-09-26T00:31:44.386Z,100715.91
2022-09-26T00:34:14.320Z,100713.30
2022-09-26T00:36:42.579Z,100716.61
2022-09-26T00:39:13.691Z,100715.40
2022-09-26T00:41:42.313Z,100711.75
2022-09-26T00:44:46.423Z,100705.84
2022-09-26T00:47:26.289Z,100700.98
2022-09-26T00:50:18.988Z,100702.23
2022-09-26T00:53:02.036Z,100704.16
2022-09-26T00:55:35.320Z,100697.39
2022-09-26T00:58:18.657Z,100698.81
2022-09-26T01:00:49.327Z,100702.49
2022-09-26T01:03:20.025Z,100702.17
2022-09-26T01:05:48.728Z,100693.14
2022-09-26T01:08:22.092Z,100684.27
2022-09-26T01:10:50.648Z,100679.42
2022-09-26T01:13:18.587Z,100683.44
2022-09-26T01:15:46.463Z,100688.14
2022-09-26T01:18:14.588Z,100682.56
2022-09-26T01:20:59.040Z,100680.30
2022-09-26T01:23:56.294Z,100676.98
2022-09-26T01:27:04.305Z,100671.42
2022-09-26T01:29:50.119Z,100668.13
2022-09-26T01:32:51.343Z,100666.20
2022-09-26T01:35:28.215Z,100661.50
2022-09-26T01:38:01.814Z,100658.90
2022-09-26T01:40:57.426Z,100655.77
2022-09-26T01:43:37.339Z,100652.83
2022-09-26T01:46:33.266Z,100657.71
2022-09-26T01:49:40.159Z,100654.77
2022-09-26T01:52:16.500Z,100653.89
2022-09-26T01:54:54.956Z,100651.98
2022-09-26T01:57:40.410Z,100646.94
2022-09-26T02:00:12.738Z,100643.45
2022-09-26T02:02:47.772Z,100640.48
2022-09-26T02:05:32.772Z,100637.89
2022-09-26T02:08:24.669Z,100639.27
2022-09-26T02:11:19.840Z,100634.25
2022-09-26T02:14:04.093Z,100630.61
2022-09-26T02:16:40.200Z,100633.59
2022-09-26T02:19:31.663Z,100633.60
2022-09-26T02:22:01.530Z,100639.53
2022-09-26T02:24:29.763Z,100636.05
2022-09-26T02:26:58.135Z,100635.71
2022-09-26T02:29:26.513Z,100636.06
2022-09-26T02:31:59.039Z,100629.45
2022-09-26T02:34:27.194Z,100625.63
2022-09-26T02:36:57.669Z,100625.80
2022-09-26T02:39:28.118Z,100623.71
2022-09-26T02:42:21.463Z,100623.52
2022-09-26T02:45:17.042Z,100628.91
2022-09-26T02:48:03.504Z,100625.76
2022-09-26T02:50:47.999Z,100622.10
2022-09-26T02:53:41.327Z,100610.97
2022-09-26T02:56:14.380Z,100608.19
2022-09-26T02:59:02.649Z,100604.20
2022-09-26T03:01:48.503Z,100609.79
2022-09-26T03:04:51.067Z,100609.62
2022-09-26T03:07:51.235Z,100607.54
2022-09-26T03:10:20.716Z,100606.14
2022-09-26T03:12:51.272Z,100601.43
2022-09-26T03:15:20.004Z,100599.85
2022-09-26T03:17:52.423Z,100595.13
2022-09-26T03:20:21.828Z,100593.71
2022-09-26T03:22:51.530Z,100591.95
2022-09-26T03:25:24.317Z,100585.50
2022-09-26T03:28:05.809Z,100579.93
2022-09-26T03:30:34.722Z,100585.52
2022-09-26T03:33:21.548Z,100583.08
2022-09-26T03:35:49.982Z,100584.64
2022-09-26T03:38:17.948Z,100580.09
2022-09-26T03:40:50.854Z,100581.65
2022-09-26T03:43:44.965Z,100572.76
2022-09-26T03:46:13.610Z,100570.32
2022-09-26T03:48:42.397Z,100564.75
2022-09-26T03:51:14.410Z,100562.31
2022-09-26T03:53:44.569Z,100563.70
2022-09-26T03:56:19.157Z,100563.16
2022-09-26T03:58:49.239Z,100565.56
2022-09-26T04:01:20.508Z,100560.48
2022-09-26T04:03:51.244Z,100560.96
2022-09-26T04:06:21.135Z,100562.13
2022-09-26T04:08:53.268Z,100553.21
2022-09-26T04:11:24.715Z,100552.80
2022-09-26T04:13:54.213Z,100553.29
2022-09-26T04:16:25.723Z,100554.46
2022-09-26T04:18:58.557Z,100551.98
2022-09-26T04:21:27.687Z,100551.06
2022-09-26T04:23:57.243Z,100553.09
2022-09-26T04:26:25.244Z,100551.83
2022-09-26T04:28:57.287Z,100551.61
2022-09-26T04:31:35.832Z,100546.86
2022-09-26T04:34:11.454Z,100544.42
2022-09-26T04:36:39.471Z,100539.20
2022-09-26T04:39:07.599Z,100537.45
2022-09-26T04:41:36.377Z,100536.20
2022-09-26T04:44:04.349Z,100532.52
2022-09-26T04:46:32.760Z,100529.02
2022-09-26T04:49:02.187Z,100529.84
2022-09-26T04:51:31.823Z,100528.94
2022-09-26T04:54:00.282Z,100529.96
2022-09-26T04:56:30.412Z,100530.11
2022-09-26T04:58:59.574Z,100530.44
2022-09-26T05:01:33.506Z,100532.65
2022-09-26T05:04:27.884Z,100534.18
2022-09-26T05:06:57.908Z,100535.87
2022-09-26T05:09:31.745Z,100535.30
2022-09-26T05:12:07.026Z,100531.08
2022-09-26T05:14:38.032Z,100531.04
2022-09-26T05:17:06.197Z,100531.35
2022-09-26T05:19:34.782Z,100530.80
2022-09-26T05:22:32.346Z,100524.31
2022-09-26T05:25:18.975Z,100524.27
2022-09-26T05:27:48.612Z,100524.06
2022-09-26T05:30:16.832Z,100517.92
2022-09-26T05:32:48.497Z,100521.56
2022-09-26T05:35:17.224Z,100519.60
2022-09-26T05:37:45.444Z,100518.86
2022-09-26T05:40:32.624Z,100523.69
2022-09-26T05:43:02.648Z,100522.58
2022-09-26T05:45:31.382Z,100519.75
2022-09-26T05:48:00.664Z,100517.44
2022-09-26T05:50:28.780Z,100517.03
2022-09-26T05:53:03.587Z,100520.46
2022-09-26T05:55:31.784Z,100514.46
2022-09-26T05:57:59.709Z,100512.69
2022-09-26T06:00:38.535Z,100509.50
2022-09-26T06:03:06.782Z,100509.49
2022-09-26T06:05:44.910Z,100507.73
2022-09-26T06:08:17.583Z,100508.23
2022-09-26T06:11:18.119Z,100506.65
2022-09-26T06:13:47.110Z,100500.52
2022-09-26T06:16:21.206Z,100505.33
2022-09-26T06:18:51.382Z,100504.73
2022-09-26T06:21:21.224Z,100499.25
2022-09-26T06:23:52.805Z,100504.48
2022-09-26T06:26:24.201Z,100500.11
2022-09-26T06:29:00.651Z,100499.89
2022-09-26T06:31:31.021Z,100499.65
2022-09-26T06:34:15.605Z,100495.42
2022-09-26T06:36:57.094Z,100493.98
2022-09-26T06:39:35.871Z,100491.30
2022-09-26T06:42:08.281Z,100487.88
2022-09-26T06:44:56.627Z,100482.74
2022-09-26T06:47:25.114Z,100478.64
2022-09-26T06:50:11.749Z,100476.85
2022-09-26T06:52:44.304Z,100474.88
2022-09-26T06:55:14.750Z,100476.03
2022-09-26T06:57:44.728Z,100482.42
2022-09-26T07:00:16.006Z,100488.48
2022-09-26T07:03:10.563Z,100488.73
2022-09-26T07:05:51.855Z,100491.28
2022-09-26T07:08:28.732Z,100481.60
2022-09-26T07:11:28.164Z,100474.24
2022-09-26T07:13:54.163Z,100469.73
2022-09-26T07:16:22.584Z,100469.85
2022-09-26T07:19:11.023Z,100472.43
2022-09-26T07:21:56.466Z,100471.33
2022-09-26T07:24:28.963Z,100471.40
2022-09-26T07:26:56.859Z,100473.91
2022-09-26T07:29:25.787Z,100465.55
2022-09-26T07:31:54.252Z,100460.86
2022-09-26T07:34:43.019Z,100459.26
2022-09-26T07:37:13.055Z,100464.81
2022-09-26T07:39:41.056Z,100464.79
2022-09-26T07:42:10.615Z,100464.77
2022-09-26T07:45:17.442Z,100464.91
2022-09-26T07:47:52.855Z,100463.35
2022-09-26T07:50:39.498Z,100463.02
2022-09-26T07:53:23.662Z,100462.65
2022-09-26T07:56:11.315Z,100465.42
2022-09-26T07:59:05.483Z,100470.84
2022-09-26T08:01:59.804Z,100470.98
2022-09-26T08:04:40.551Z,100471.73
2022-09-26T08:07:09.970Z,100473.23
2022-09-26T08:09:43.345Z,100472.83
2022-09-26T08:12:38.554Z,100473.46
2022-09-26T08:15:26.807Z,100474.48
2022-09-26T08:18:05.400Z,100474.55
2022-09-26T08:20:34.045Z,100476.57
2022-09-26T08:23:02.070Z,100478.98
2022-09-26T08:25:31.066Z,100473.49
2022-09-26T08:28:12.441Z,100472.91
2022-09-26T08:30:41.347Z,100469.55
2022-09-26T08:33:12.586Z,100471.48
2022-09-26T08:35:40.850Z,100468.44
2022-09-26T08:38:41.101Z,100468.34
2022-09-26T08:41:32.744Z,100465.75
2022-09-26T08:44:39.557Z,100461.16
2022-09-26T08:47:49.198Z,100468.96
2022-09-26T08:50:50.062Z,100465.78
2022-09-26T08:53:26.941Z,100467.80
2022-09-26T08:55:58.174Z,100463.40
2022-09-26T08:58:35.046Z,100460.52
2022-09-26T09:01:13.161Z,100459.34
2022-09-26T09:04:43.622Z,100460.77
2022-09-26T09:07:24.571Z,100463.40
2022-09-26T09:09:57.425Z,100462.44
2022-09-26T09:13:10.788Z,100460.08
2022-09-26T09:16:25.506Z,100458.20
2022-09-26T09:19:27.229Z,100455.46
2022-09-26T09:22:27.666Z,100458.02
2022-09-26T09:25:23.390Z,100459.82
2022-09-26T09:28:01.230Z,100452.60
2022-09-26T09:30:52.230Z,100447.09
2022-09-26T09:33:52.592Z,100446.48
2022-09-26T09:36:46.674Z,100448.59
2022-09-26T09:39:26.749Z,100449.58
2022-09-26T09:42:21.114Z,100453.16
2022-09-26T09:44:58.453Z,100452.83
2022-09-26T09:47:29.394Z,100445.77
2022-09-26T09:49:59.972Z,100448.27
2022-09-26T09:52:57.729Z,100446.41
2022-09-26T09:55:31.855Z,100441.66
2022-09-26T09:58:00.285Z,100444.02
2022-09-26T10:00:29.744Z,100441.14
2022-09-26T10:03:24.139Z,100437.60
2022-09-26T10:06:01.479Z,100436.63
2022-09-26T10:08:41.746Z,100435.65
2022-09-26T10:11:24.327Z,100437.69
2022-09-26T10:14:06.312Z,100436.00
2022-09-26T10:17:12.781Z,100434.70
2022-09-26T10:19:56.730Z,100438.27
2022-09-26T10:22:37.637Z,100438.21
2022-09-26T10:25:16.283Z,100442.69
2022-09-26T10:27:53.249Z,100446.98
2022-09-26T10:30:26.188Z,100446.58
2022-09-26T10:32:59.120Z,100442.65
2022-09-26T10:35:45.515Z,100442.81
2022-09-26T10:38:23.926Z,100441.73
2022-09-26T10:41:03.527Z,100432.49
2022-09-26T10:43:38.137Z,100429.30
2022-09-26T10:46:19.343Z,100424.89
2022-09-26T10:48:52.697Z,100423.30
2022-09-26T10:51:45.109Z,100422.89
2022-09-26T10:54:25.284Z,100422.33
2022-09-26T10:56:59.289Z,100417.77
2022-09-26T10:59:36.334Z,100419.54
2022-09-26T11:02:05.958Z,100423.34
2022-09-26T11:04:54.186Z,100424.00
2022-09-26T11:07:46.548Z,100425.98
2022-09-26T11:10:32.621Z,100429.82
2022-09-26T11:13:23.366Z,100427.33
2022-09-26T11:16:13.119Z,100422.91
2022-09-26T11:18:45.252Z,100424.92
2022-09-26T11:21:35.471Z,100425.11
2022-09-26T11:24:26.481Z,100426.73
2022-09-26T11:27:28.409Z,100425.56
2022-09-26T11:30:09.358Z,100424.02
2022-09-26T11:32:44.041Z,100425.45
2022-09-26T11:36:22.711Z,100415.66
2022-09-26T11:38:58.108Z,100411.02
2022-09-26T11:42:04.546Z,100413.48
2022-09-26T11:44:32.442Z,100414.21
2022-09-26T11:47:30.436Z,100415.48
2022-09-26T11:50:20.749Z,100408.90
2022-09-26T11:53:25.438Z,100406.00
2022-09-26T11:56:16.154Z,100409.38
2022-09-26T11:58:49.694Z,100408.23
2022-09-26T12:01:27.441Z,100410.27
2022-09-26T12:04:06.560Z,100408.64
2022-09-26T12:06:41.602Z,100404.30
2022-09-26T12:09:33.879Z,100402.04
2022-09-26T12:12:39.687Z,100402.60
2022-09-26T12:15:55.155Z,100399.30
2022-09-26T12:18:47.439Z,100401.08
2022-09-26T12:21:30.509Z,100399.06
2022-09-26T12:24:21.534Z,100395.21
2022-09-26T12:27:33.332Z,100393.96
2022-09-26T12:30:17.476Z,100390.52
2022-09-26T12:32:51.592Z,100393.11
2022-09-26T12:35:58.439Z,100391.73
2022-09-26T12:38:39.527Z,100389.20
2022-09-26T12:41:15.480Z,100384.56
2022-09-26T12:44:22.317Z,100383.32
2022-09-26T12:47:11.753Z,100380.16
2022-09-26T12:49:42.672Z,100376.55
2022-09-26T12:52:32.327Z,100373.55
2022-09-26T12:55:19.077Z,100372.23
2022-09-26T12:58:00.838Z,100373.20
2022-09-26T13:00:39.892Z,100372.50
2022-09-26T13:03:26.625Z,100372.29
2022-09-26T13:06:27.541Z,100373.52
2022-09-26T13:09:24.157Z,100372.48
2022-09-26T13:11:58.089Z,100365.33
2022-09-26T13:14:44.283Z,100362.85
2022-09-26T13:17:45.952Z,100361.80
2022-09-26T13:20:24.313Z,100362.55
2022-09-26T13:22:58.727Z,100366.62
2022-09-26T13:25:35.919Z,100365.95
2022-09-26T13:28:25.916Z,100364.80
2022-09-26T13:31:03.523Z,100365.52
2022-09-26T13:33:44.500Z,100364.46
2022-09-26T13:36:14.074Z,100364.09
2022-09-26T13:38:53.052Z,100366.52
2022-09-26T13:41:48.672Z,100362.39
2022-09-26T13:44:51.585Z,100358.34
2022-09-26T13:47:49.430Z,100359.29
2022-09-26T13:50:41.296Z,100357.95
2022-09-26T13:53:29.001Z,100349.92
2022-09-26T13:56:34.144Z,100350.38
2022-09-26T13:59:27.147Z,100347.08
2022-09-26T14:02:17.085Z,100345.29
2022-09-26T14:04:53.453Z,100341.63
2022-09-26T14:08:02.859Z,100336.57
2022-09-26T14:10:30.829Z,100334.90
2022-09-26T14:13:10.565Z,100338.65
2022-09-26T14:15:47.829Z,100335.90
2022-09-26T14:18:50.644Z,100333.81
2022-09-26T14:21:57.787Z,100329.73
2022-09-26T14:24:37.904Z,100325.20
2022-09-26T14:27:24.486Z,100326.55
2022-09-26T14:29:54.108Z,100325.02
2022-09-26T14:32:26.459Z,100321.05
2022-09-26T14:34:54.831Z,100321.77
2022-09-26T14:37:25.567Z,100323.70
2022-09-26T14:39:59.695Z,100326.45
2022-09-26T14:42:32.828Z,100326.80
2022-09-26T14:45:20.708Z,100326.54
2022-09-26T14:48:12.651Z,100327.86
2022-09-26T14:50:49.691Z,100323.36
2022-09-26T14:53:27.668Z,100325.95
2022-09-26T14:56:03.668Z,100328.48
2022-09-26T14:58:36.590Z,100327.45
2022-09-26T15:01:28.770Z,100321.45
2022-09-26T15:04:10.644Z,100318.80
2022-09-26T15:06:52.346Z,100318.06
2022-09-26T15:09:25.463Z,100316.82
2022-09-26T15:12:08.776Z,100316.79
2022-09-26T15:14:45.565Z,100315.02
2022-09-26T15:17:38.622Z,100313.31
2022-09-26T15:20:14.067Z,100318.14
2022-09-26T15:22:43.148Z,100319.49
2022-09-26T15:25:19.431Z,100322.95
2022-09-26T15:27:54.110Z,100319.73
2022-09-26T15:30:24.589Z,100321.02
2022-09-26T15:33:03.301Z,100317.48
2022-09-26T15:35:32.475Z,100313.83
2022-09-26T15:38:03.097Z,100313.95
2022-09-26T15:40:32.165Z,100314.30
2022-09-26T15:43:09.750Z,100313.06
2022-09-26T15:45:46.608Z,100316.92
2022-09-26T15:48:19.589Z,100318.14
2022-09-26T15:50:52.248Z,100318.63
2022-09-26T15:53:33.323Z,100316.84
2022-09-26T15:56:08.459Z,100321.17
2022-09-26T15:58:49.759Z,100321.28
2022-09-26T16:01:20.849Z,100318.39
2022-09-26T16:04:00.371Z,100315.56
2022-09-26T16:06:35.393Z,100319.45
2022-09-26T16:09:45.261Z,100318.16
2022-09-26T16:12:16.447Z,100316.98
2022-09-26T16:15:03.782Z,100313.02
2022-09-26T16:17:49.427Z,100315.46
2022-09-26T16:20:17.425Z,100314.58
2022-09-26T16:22:51.168Z,100316.90
2022-09-26T16:25:24.288Z,100313.22
2022-09-26T16:28:00.989Z,100316.24
2022-09-26T16:30:31.666Z,100315.38
2022-09-26T16:33:02.259Z,100315.41
2022-09-26T16:35:33.638Z,100315.21
2022-09-26T16:38:05.375Z,100311.30
2022-09-26T16:40:35.613Z,100311.95
2022-09-26T16:43:19.077Z,100308.75
2022-09-26T16:45:49.792Z,100311.20
2022-09-26T16:48:56.513Z,100308.42
2022-09-26T16:51:39.837Z,100314.29
2022-09-26T16:54:07.996Z,100307.77
2022-09-26T16:56:40.485Z,100307.16
2022-09-26T16:59:21.465Z,100310.95
2022-09-26T17:01:56.588Z,100311.75
2022-09-26T17:04:31.055Z,100310.64
2022-09-26T17:07:00.544Z,100311.18
2022-09-26T17:09:31.488Z,100306.96
2022-09-26T17:12:18.193Z,100306.77
2022-09-26T17:14:49.441Z,100306.20
2022-09-26T17:17:25.496Z,100304.88
2022-09-26T17:19:59.625Z,100303.31
2022-09-26T17:22:28.376Z,100298.42
2022-09-26T17:24:57.033Z,100304.62
2022-09-26T17:27:30.696Z,100300.73
2022-09-26T17:30:02.446Z,100299.02
2022-09-26T17:32:44.302Z,100300.59
2022-09-26T17:35:17.290Z,100299.02
2022-09-26T17:37:45.260Z,100299.70
2022-09-26T17:40:19.652Z,100296.00
2022-09-26T17:42:47.783Z,100298.73
2022-09-26T17:45:15.888Z,100298.16
2022-09-26T17:47:43.887Z,100300.17
2022-09-26T17:50:21.536Z,100297.42
2022-09-26T17:52:49.700Z,100294.52
2022-09-26T17:55:18.966Z,100295.96
2022-09-26T17:57:47.143Z,100291.93
2022-09-26T18:00:18.196Z,100291.40
2022-09-26T18:02:55.634Z,100291.56
2022-09-26T18:05:26.806Z,100289.98
2022-09-26T18:08:26.308Z,100288.23
2022-09-26T18:11:01.540Z,100285.98
2022-09-26T18:13:36.373Z,100286.21
2022-09-26T18:16:05.772Z,100288.16
2022-09-26T18:18:34.259Z,100293.97
2022-09-26T18:21:04.222Z,100296.65
2022-09-26T18:23:50.266Z,100302.83
2022-09-26T18:26:42.333Z,100304.85
2022-09-26T18:29:15.491Z,100314.51
2022-09-26T18:31:46.433Z,100317.27
2022-09-26T18:34:18.756Z,100325.14
2022-09-26T18:36:49.006Z,100324.45
2022-09-26T18:39:17.079Z,100317.58
2022-09-26T18:41:46.084Z,100329.73
2022-09-26T18:44:17.847Z,100360.05
2022-09-26T18:46:47.325Z,100390.77
2022-09-26T18:49:16.085Z,100389.98
2022-09-26T18:51:45.922Z,100379.23
2022-09-26T18:54:17.196Z,100369.70
2022-09-26T18:57:04.049Z,100371.10
2022-09-26T18:59:32.303Z,100367.17
2022-09-26T19:02:02.005Z,100352.58
2022-09-26T19:04:33.546Z,100345.71
2022-09-26T19:07:06.151Z,100332.85
2022-09-26T19:09:36.343Z,100323.27
2022-09-26T19:12:04.955Z,100315.77
2022-09-26T19:14:33.235Z,100311.63
2022-09-26T19:17:01.243Z,100325.00
2022-09-26T19:19:30.455Z,100328.02
2022-09-26T19:22:01.192Z,100327.16
2022-09-26T19:24:53.016Z,100324.90
2022-09-26T19:27:22.934Z,100327.23
2022-09-26T19:30:01.033Z,100328.69
2022-09-26T19:32:39.652Z,100326.60
2022-09-26T19:35:19.911Z,100324.35
2022-09-26T19:37:48.064Z,100318.77
2022-09-26T19:40:18.593Z,100310.54
2022-09-26T19:42:47.397Z,100309.98
2022-09-26T19:45:16.307Z,100303.67
2022-09-26T19:47:50.638Z,100292.14
2022-09-26T19:50:21.182Z,100284.28
2022-09-26T19:52:51.785Z,100280.27
2022-09-26T19:55:26.641Z,100277.16
2022-09-26T19:58:18.147Z,100272.55
2022-09-26T20:00:55.113Z,100275.48
2022-09-26T20:03:29.277Z,100273.80
2022-09-26T20:05:57.605Z,100266.65
2022-09-26T20:08:26.781Z,100258.25
2022-09-26T20:10:58.174Z,100262.31
2022-09-26T20:13:26.049Z,100261.66
2022-09-26T20:15:54.777Z,100263.11
2022-09-26T20:18:24.214Z,100257.53
2022-09-26T20:20:54.695Z,100250.89
2022-09-26T20:23:26.462Z,100252.12
2022-09-26T20:25:55.589Z,100254.38
2022-09-26T20:28:24.038Z,100250.01
2022-09-26T20:30:52.234Z,100250.06
2022-09-26T20:33:22.429Z,100251.45
2022-09-26T20:36:03.001Z,100261.43
2022-09-26T20:38:31.577Z,100265.54
2022-09-26T20:41:09.303Z,100267.23
2022-09-26T20:43:45.023Z,100272.46
2022-09-26T20:46:13.547Z,100272.42
2022-09-26T20:48:44.951Z,100270.30
2022-09-26T20:51:20.570Z,100269.35
2022-09-26T20:53:48.571Z,100272.80
2022-09-26T20:56:20.733Z,100267.33
2022-09-26T20:58:48.887Z,100263.80
2022-09-26T21:01:19.795Z,100268.59
2022-09-26T21:03:50.582Z,100266.92
2022-09-26T21:06:23.825Z,100263.69
2022-09-26T21:08:51.844Z,100261.80
2022-09-26T21:11:21.346Z,100260.58
2022-09-26T21:13:49.701Z,100260.95
2022-09-26T21:16:22.026Z,100259.58
2022-09-26T21:18:52.528Z,100257.83
2022-09-26T21:21:26.924Z,100259.23
2022-09-26T21:24:01.297Z,100259.39
2022-09-26T21:26:31.382Z,100260.09
2022-09-26T21:28:59.552Z,100265.10
2022-09-26T21:31:33.631Z,100262.31
2022-09-26T21:34:03.437Z,100262.80
2022-09-26T21:36:35.741Z,100256.98
2022-09-26T21:39:05.247Z,100264.35
2022-09-26T21:41:33.623Z,100264.38
2022-09-26T21:44:11.629Z,100267.55
2022-09-26T21:46:39.684Z,100270.91
2022-09-26T21:49:07.670Z,100273.89
2022-09-26T21:51:36.454Z,100274.40
2022-09-26T21:54:11.715Z,100275.03
2022-09-26T21:56:50.311Z,100273.27
2022-09-26T21:59:21.618Z,100267.48
2022-09-26T22:01:49.767Z,100257.48
2022-09-26T22:04:19.229Z,100250.44
2022-09-26T22:06:47.197Z,100251.24
2022-09-26T22:09:15.303Z,100248.63
2022-09-26T22:11:43.305Z,100242.33
2022-09-26T22:14:11.274Z,100237.91
2022-09-26T22:16:39.317Z,100238.08
2022-09-26T22:19:07.357Z,100227.55
2022-09-26T22:21:35.314Z,100218.98
2022-09-26T22:24:03.560Z,100221.92
2022-09-26T22:26:31.574Z,100213.69
2022-09-26T22:28:59.489Z,100205.98
2022-09-26T22:31:27.644Z,100196.36
2022-09-26T22:33:59.673Z,100191.83
2022-09-26T22:36:27.839Z,100196.73
2022-09-26T22:38:55.902Z,100201.31
2022-09-26T22:41:23.871Z,100200.45
2022-09-26T22:43:53.068Z,100197.67
2022-09-26T22:46:21.743Z,100191.20
2022-09-26T22:48:49.727Z,100186.81
2022-09-26T22:51:18.115Z,100178.08
2022-09-26T22:53:45.998Z,100169.13
2022-09-26T22:56:15.263Z,100166.66
2022-09-26T22:58:47.337Z,100162.09
2022-09-26T23:01:27.963Z,100159.80
2022-09-26T23:03:58.594Z,100165.31
2022-09-26T23:06:27.209Z,100167.89
2022-09-26T23:08:55.415Z,100169.23
2022-09-26T23:11:24.889Z,100169.79
2022-09-26T23:13:53.160Z,100165.75
2022-09-26T23:16:24.263Z,100170.11
2022-09-26T23:18:52.579Z,100179.79
2022-09-26T23:21:26.592Z,100183.02
2022-09-26T23:23:56.409Z,100182.02
2022-09-26T23:26:28.158Z,100181.73
2022-09-26T23:28:57.677Z,100179.63
2022-09-26T23:31:27.844Z,100174.69
2022-09-26T23:33:56.470Z,100176.90
2022-09-26T23:36:24.843Z,100174.23
2022-09-26T23:38:53.693Z,100176.47
2022-09-26T23:41:21.659Z,100180.98
2022-09-26T23:43:50.154Z,100178.84
2022-09-26T23:46:18.137Z,100178.80
2022-09-26T23:48:46.134Z,100170.86
2022-09-26T23:51:14.083Z,100167.88
2022-09-26T23:53:42.012Z,100162.80
2022-09-26T23:56:12.023Z,100163.35
2022-09-26T23:58:40.759Z,100163.53
